Airfield :
LOGIN :

Register | Disclaimer

   EN    FR    IT 

 










Legend :    VFR   Marginal VFR   IFR   Intensive IFR   Very Intensive IFR
Visi :
Ceiling :
>= 8 km
>= 3000ft
5 to 8 km
1000 to 3000 ft
1500m to 5 km
500 to 1000 ft
800 to 1500m
200 to 500 ft
< 800m
< 200 ft
Symbols :   Thunderstorms  Fog  Heavy snow  Heavy precipitations  Wind > 20 kt
SIGMETs :     Misc.  Thunderstorms  Icing  Turbulence  Mountain Waves  Volcanic Ashes






- Airport Elevation : 247 ft
- IATA code : BLL


EKBI - Billund

CURRENT METAR :
  • 191550Z AUTO 23008KT 5000 -SHRA OVC004/// 08/08 Q1009

EXPIRED METARs :
  • 191520Z AUTO 23008KT 7000 -RA OVC004/// 08/08 Q1008
  • 191450Z AUTO 23008KT 5000 OVC005/// 08/08 Q1008
  • 191420Z AUTO 23007KT 9999 -RA OVC004/// 08/08 Q1007
  • 191350Z AUTO 24008KT 1900 DZ BR OVC004/// 08/08 Q1007
  • 191320Z AUTO 22006KT 2200 -RA BR OVC003/// 07/07 Q1006

TAF TAF EKBI
Valid from the 19 at 12:00 until the 20 at 12:00 UTC


191100Z 1912/2012 20008KT 2500 -RADZ BR BKN004
TEMPO 1912/1915 5000 BKN008
BECMG 1915/1917 9999 NSW BKN010
BECMG 1917/1920 BKN015



MET'MAP, your aeronautical weather chart ! - Copyright ORBIFLY December 2007 - Disclaimer

ORBIFLY MET'MAP TEAM :

Programming & Development : Alexandra Zaïnal
Concept & Development : Baudouin d'Aumeries
Co-Development & Prog : Marc-Olivier Méhu
Technical & hardware support : Manuel Goepfert

Contact : metmap@orbifly.com




SOURCES & CREDITS :

   NOAA